Aérodrome :
LOGIN :

S'inscrire | Disclaimer

   EN    FR    IT 

 










Légende :    VFR   VFR Marginal   IFR   IFR Intensif   IFR Très Intensif
Visi : 
Plafond : 
>= 8 km
>= 3000ft
5 à 8 km
1000 à 3000 ft
1500m à 5 km
500 à 1000 ft
800 à 1500m
200 à 500 ft
< 800m
< 200 ft
Symboles :   Orages  Brouillard  Fortes neiges  Fortes précipitations  Vent > 20 kt
SIGMETs :   Divers  Orages  Givrage  Turbulence  Onde Orograph.  Cendres Volcan.







- Altitude de l'aérodrome : 138 ft
- Code IATA : BIO


LEBB - Bilbao

DERNIER METAR :
  • 190230Z AUTO 32003KT 280V340 9999 SCT033/// BKN050/// 17/16 Q1017

METARs EXPIRÉS :
  • 190200Z AUTO 34005KT 300V020 9999 FEW009/// SCT016/// BKN031/// 17/16 Q1018
  • 190130Z AUTO 32006KT 290V360 9999 SCT028/// BKN033/// 17/16 Q1017
  • 190100Z AUTO 33006KT 9999 SCT012/// BKN027/// 17/16 Q1017
  • 190030Z AUTO 33007KT 9999 SCT028/// SCT035/// BKN043/// 17/16 Q1017
  • 190000Z AUTO 32009KT 9999 SCT029/// BKN034/// BKN047/// 17/16 Q1017

TAF TAF LEBB
Valide du 19 à 00h jusqu'au 20 à 00h UTC


182300Z 1900/1924 30005KT 8000 SCT010 BKN020 TX19/1914Z TN15/1906Z
PROB40
TEMPO 1900/1924 3000 -RADZ BR BKN005 BKN010
PROB40
TEMPO 1900/1909 BKN005
Pas de NOTAMs connus pour ce terrain.
1 SIGMET publié pour la FIR Madrid (LECM) :
 
Annulation du SIGMET 18
LECM SIGMET 1 VALID 190150/192200 LEVA
LECM MADRID UIR CNL SIGMET 18 VALID 182039/192200=



MET'MAP, la Météo Aéronautique d'un coup d'oeil ! - Copyright ORBIFLY Décembre 2007 - Disclaimer

ORBIFLY MET'MAP TEAM :

Programmation & Développement : Alexandra Zaïnal
Conception & Développement : Baudouin d'Aumeries
Co-Programmation & Développement : Marc-Olivier Méhu
Soutien technique & logistique : Manuel Goepfert

Contact : metmap@orbifly.com




SOURCES & CREDITS :

   NOAA